Time;durP1;ratioP1;P1;durP2;ratioP2;P2;SDS_P1;SDS_P2;PMS_P1;PMS_P2;Temp;Humidity;BMP_temperature;BMP_pressure;BME280_temperature;BME280_humidity;BME280_pressure;Samples;Min_cycle;Max_cycle;Signal;HPM_P1;HPM_P2
2022/01/12 00:00:17;;;;;;;7.63;5.43;;;17.30;47.60;;;;;;4970760;28;92805;-76
2022/01/12 00:02:43;;;;;;;6.20;5.05;;;17.30;47.50;;;;;;4969493;28;93227;-77
2022/01/12 00:05:09;;;;;;;6.28;5.10;;;17.30;47.50;;;;;;4970740;28;92869;-77
2022/01/12 00:07:35;;;;;;;6.47;4.95;;;17.30;47.50;;;;;;4969732;28;92655;-77
2022/01/12 00:10:00;;;;;;;7.35;5.00;;;17.30;47.60;;;;;;4970517;28;93103;-77
2022/01/12 00:12:26;;;;;;;6.05;4.93;;;17.30;47.60;;;;;;4968323;28;96429;-77
2022/01/12 00:14:52;;;;;;;7.60;5.47;;;17.30;47.60;;;;;;4970517;28;95224;-77
2022/01/12 00:17:18;;;;;;;6.60;5.43;;;17.30;47.60;;;;;;4971607;28;92865;-77
2022/01/12 00:19:45;;;;;;;6.72;5.10;;;17.30;47.60;;;;;;4973350;28;93368;-77
2022/01/12 00:22:12;;;;;;;7.13;5.22;;;17.30;47.50;;;;;;4974521;28;94073;-77
2022/01/12 00:25:12;;;;;;;6.50;5.25;;;17.30;47.40;;;;;;4974262;28;92945;-77
2022/01/12 00:33:13;;;;;;;6.38;5.68;;;17.30;47.50;;;;;;4973991;28;92892;-77
2022/01/12 00:35:40;;;;;;;6.60;5.30;;;17.30;47.60;;;;;;4972926;28;93761;-77
2022/01/12 00:38:07;;;;;;;7.88;5.53;;;17.30;47.60;;;;;;4972001;28;95154;-77
2022/01/12 00:40:36;;;;;;;7.38;5.60;;;17.30;47.60;;;;;;4974353;28;92968;-77
2022/01/12 00:43:03;;;;;;;8.82;5.65;;;17.20;47.60;;;;;;4972880;28;93146;-77
2022/01/12 00:45:28;;;;;;;7.05;5.55;;;17.20;47.60;;;;;;4972235;28;93911;-77
2022/01/12 00:47:54;;;;;;;7.63;5.60;;;17.20;47.60;;;;;;4973763;28;92821;-77
2022/01/12 00:50:20;;;;;;;6.60;5.70;;;17.20;47.70;;;;;;4973930;28;92696;-77
2022/01/12 00:52:45;;;;;;;7.60;5.60;;;17.20;47.60;;;;;;4972397;28;93064;-77
2022/01/12 00:55:11;;;;;;;9.35;6.13;;;17.20;47.60;;;;;;4972382;28;95383;-77
2022/01/12 00:57:38;;;;;;;7.70;5.95;;;17.20;47.60;;;;;;4973432;28;93061;-77
2022/01/12 01:00:05;;;;;;;8.63;6.28;;;17.20;47.70;;;;;;4973459;28;92624;-77
2022/01/12 01:02:31;;;;;;;7.72;5.45;;;17.20;47.70;;;;;;4971049;28;96900;-77
2022/01/12 01:04:57;;;;;;;8.43;5.85;;;17.20;47.70;;;;;;4973321;28;95162;-78
2022/01/12 01:07:22;;;;;;;9.05;5.97;;;17.20;47.70;;;;;;4972924;28;92824;-77
2022/01/12 01:09:58;;;;;;;7.40;6.03;;;17.20;47.70;;;;;;4973339;28;92948;-77
2022/01/12 01:12:24;;;;;;;8.30;5.93;;;17.20;47.70;;;;;;4972044;28;94703;-77
2022/01/12 01:15:03;;;;;;;8.30;6.30;;;17.20;47.70;;;;;;4972432;28;92831;-77
2022/01/12 01:25:58;;;;;;;7.25;5.85;;;17.10;47.70;;;;;;4972447;28;92521;-77
2022/01/12 01:28:24;;;;;;;8.73;6.10;;;17.10;47.70;;;;;;4970619;28;95576;-77
2022/01/12 01:30:49;;;;;;;8.30;6.10;;;17.10;47.60;;;;;;4970919;28;92591;-77
2022/01/12 01:33:17;;;;;;;7.88;6.43;;;17.10;47.70;;;;;;4971399;28;93155;-78
2022/01/12 01:35:55;;;;;;;8.07;6.05;;;17.10;47.70;;;;;;4971085;28;94137;-77
2022/01/12 01:38:21;;;;;;;9.70;7.45;;;17.10;47.70;;;;;;4972663;28;92458;-78
2022/01/12 01:40:48;;;;;;;9.48;6.70;;;17.10;47.70;;;;;;4973060;28;92451;-78
2022/01/12 01:43:25;;;;;;;8.80;6.50;;;17.10;47.80;;;;;;4971958;28;93959;-77
2022/01/12 01:54:04;;;;;;;8.63;6.35;;;17.10;47.80;;;;;;4971191;28;95501;-78
2022/01/12 01:56:31;;;;;;;8.75;6.70;;;17.10;47.80;;;;;;4971246;28;93997;-78
2022/01/12 01:58:57;;;;;;;9.73;6.80;;;17.10;47.80;;;;;;4971962;28;93067;-78
2022/01/12 02:01:27;;;;;;;8.82;6.78;;;17.10;47.90;;;;;;4974171;28;92880;-78
2022/01/12 02:04:02;;;;;;;9.13;6.65;;;17.00;47.80;;;;;;4976538;28;94224;-77
2022/01/12 02:06:28;;;;;;;10.40;7.05;;;17.00;47.80;;;;;;4976366;28;92907;-78
2022/01/12 02:08:55;;;;;;;9.35;6.60;;;17.00;47.90;;;;;;4973893;28;93022;-78
2022/01/12 02:11:28;;;;;;;10.23;7.50;;;17.00;47.90;;;;;;4972344;28;92069;-78
2022/01/12 02:13:53;;;;;;;;;;;17.00;47.90;;;;;;4971807;28;92952;-77
2022/01/12 02:16:26;;;;;;;10.82;7.25;;;17.00;47.90;;;;;;4973267;28;92990;-78
2022/01/12 02:40:53;;;;;;;10.07;7.68;;;16.90;48.00;;;;;;4970462;28;92816;-78
2022/01/12 02:43:39;;;;;;;11.55;7.40;;;16.90;48.00;;;;;;4971028;28;92907;-77
2022/01/12 02:53:37;;;;;;;12.38;8.50;;;16.90;48.20;;;;;;4972400;28;92569;-78
2022/01/12 02:54:19;;;;;;;12.65;8.13;;;16.90;48.10;;;;;;4971604;28;92932;-78
2022/01/12 02:56:44;;;;;;;11.55;8.05;;;16.90;48.10;;;;;;4970487;28;97893;-77
2022/01/12 02:59:10;;;;;;;12.73;8.05;;;16.90;48.20;;;;;;4970751;28;93175;-77
2022/01/12 03:04:08;;;;;;;12.35;8.48;;;16.90;48.20;;;;;;4970868;28;92395;-77
2022/01/12 03:06:36;;;;;;;14.20;9.02;;;16.90;48.30;;;;;;4970710;28;94200;-78
2022/01/12 03:09:05;;;;;;;12.38;8.20;;;16.80;48.20;;;;;;4970363;28;92998;-78
2022/01/12 03:11:32;;;;;;;12.57;8.55;;;16.90;48.30;;;;;;4969589;28;95917;-77
2022/01/12 03:13:58;;;;;;;13.85;8.95;;;16.90;48.30;;;;;;4969873;28;92765;-77
2022/01/12 03:16:25;;;;;;;13.43;8.70;;;16.90;48.20;;;;;;4970931;28;93509;-77
2022/01/12 03:18:58;;;;;;;14.60;9.10;;;16.90;48.20;;;;;;4970386;28;93299;-78
2022/01/12 03:21:26;;;;;;;14.83;9.27;;;16.90;48.10;;;;;;4970593;28;92877;-78
2022/01/12 03:23:52;;;;;;;13.98;8.95;;;16.90;48.20;;;;;;4969628;28;92564;-78
2022/01/12 03:26:19;;;;;;;14.50;9.35;;;16.90;48.10;;;;;;4970316;28;92946;-76
2022/01/12 03:28:52;;;;;;;13.95;8.68;;;16.90;48.10;;;;;;4968988;28;92978;-77
2022/01/12 03:31:21;;;;;;;14.30;9.38;;;16.90;48.10;;;;;;4971139;28;93133;-77
2022/01/12 03:33:56;;;;;;;15.45;9.63;;;16.90;48.10;;;;;;4970113;28;94073;-77
2022/01/12 03:36:25;;;;;;;13.77;9.50;;;17.00;48.10;;;;;;4969087;28;96051;-78
2022/01/12 03:38:58;;;;;;;12.90;9.07;;;16.90;48.00;;;;;;4969768;28;96303;-77
2022/01/12 03:41:26;;;;;;;14.30;9.48;;;17.00;48.10;;;;;;4970750;28;92973;-78
2022/01/12 03:43:53;;;;;;;13.27;8.93;;;16.90;48.10;;;;;;4969030;28;92586;-77
2022/01/12 03:46:23;;;;;;;15.30;9.45;;;16.90;48.10;;;;;;4969191;28;93816;-78
2022/01/12 03:48:48;;;;;;;14.07;9.82;;;16.90;48.10;;;;;;4967009;28;92934;-77
2022/01/12 03:51:14;;;;;;;14.55;9.52;;;16.90;48.20;;;;;;4970039;28;92972;-77
2022/01/12 03:53:40;;;;;;;14.25;9.48;;;16.90;48.10;;;;;;4969136;28;91941;-78
2022/01/12 03:56:06;;;;;;;13.90;9.50;;;16.90;48.10;;;;;;4969532;28;93003;-77
2022/01/12 03:58:31;;;;;;;13.38;9.25;;;16.90;48.10;;;;;;4969971;28;93006;-78
2022/01/12 05:43:46;;;;;;;12.23;7.70;;;18.50;45.50;;;;;;5134206;22;93562;-79
2022/01/12 05:46:14;;;;;;;12.00;8.05;;;18.50;45.60;;;;;;4933000;28;93614;-77
2022/01/12 05:51:27;;;;;;;10.75;7.70;;;18.50;45.70;;;;;;4931542;28;96073;-77
2022/01/12 05:53:53;;;;;;;11.48;7.82;;;18.40;45.80;;;;;;4933300;28;92530;-77
2022/01/12 05:56:19;;;;;;;11.60;8.13;;;18.40;45.90;;;;;;4932677;28;97388;-77
2022/01/12 05:58:44;;;;;;;14.13;9.02;;;18.30;46.00;;;;;;4932680;28;93396;-77
2022/01/12 06:01:10;;;;;;;13.20;8.18;;;18.30;46.10;;;;;;4932701;28;92744;-80
2022/01/12 06:03:36;;;;;;;12.32;8.55;;;18.20;46.20;;;;;;4933161;28;92890;-79
2022/01/12 06:06:01;;;;;;;12.15;7.50;;;18.10;46.30;;;;;;4932338;28;93809;-77
2022/01/12 06:08:27;;;;;;;12.05;7.35;;;18.00;46.40;;;;;;4932756;28;92520;-77
2022/01/12 06:10:52;;;;;;;12.48;7.90;;;18.00;46.60;;;;;;4933159;28;92931;-78
2022/01/12 06:13:18;;;;;;;11.98;8.15;;;17.90;46.70;;;;;;4933127;28;93074;-77
2022/01/12 06:15:44;;;;;;;12.10;8.35;;;17.90;46.80;;;;;;4930932;28;95548;-78
2022/01/12 06:18:10;;;;;;;14.05;8.25;;;17.80;46.90;;;;;;4931762;28;97289;-78
2022/01/12 06:20:36;;;;;;;13.38;7.97;;;17.70;46.90;;;;;;4932661;28;92984;-77
2022/01/12 06:23:01;;;;;;;13.10;8.50;;;17.70;47.10;;;;;;4933125;28;93053;-77
2022/01/12 06:25:27;;;;;;;13.18;8.50;;;17.60;47.10;;;;;;4932942;28;93731;-77
2022/01/12 06:27:57;;;;;;;12.95;8.60;;;17.60;47.20;;;;;;4931771;28;92822;-77
2022/01/12 06:32:57;;;;;;;12.80;8.68;;;17.50;47.40;;;;;;4932105;28;92115;-77
2022/01/12 06:35:25;;;;;;;13.82;8.52;;;17.50;47.60;;;;;;4932468;28;93616;-77
2022/01/12 06:37:51;;;;;;;11.95;8.63;;;17.40;47.60;;;;;;4932186;28;93368;-78
2022/01/12 06:40:18;;;;;;;12.05;8.25;;;17.40;47.80;;;;;;4930800;28;94968;-78
2022/01/12 06:42:45;;;;;;;12.57;9.13;;;17.30;48.00;;;;;;4932190;28;92625;-77
2022/01/12 06:45:10;;;;;;;12.40;8.23;;;17.30;48.00;;;;;;4931725;28;94167;-77
2022/01/12 06:47:37;;;;;;;11.95;8.18;;;17.20;48.10;;;;;;4931622;28;92902;-77
2022/01/12 06:50:04;;;;;;;11.98;8.23;;;17.20;48.20;;;;;;4932568;28;92892;-77
2022/01/12 06:52:30;;;;;;;12.85;8.88;;;17.20;48.30;;;;;;4932152;28;92876;-77
2022/01/12 06:54:55;;;;;;;15.20;9.05;;;17.10;48.40;;;;;;4931576;28;94300;-77
2022/01/12 06:57:21;;;;;;;14.35;8.88;;;17.10;48.50;;;;;;4932062;28;92677;-78
2022/01/12 06:59:47;;;;;;;13.48;8.85;;;17.10;48.40;;;;;;4932158;28;92477;-78
2022/01/12 07:02:12;;;;;;;15.95;9.27;;;17.00;48.40;;;;;;4931790;28;93020;-77
2022/01/12 07:04:39;;;;;;;11.95;8.60;;;17.00;48.50;;;;;;4930027;28;95565;-78
2022/01/12 07:07:05;;;;;;;13.55;9.27;;;17.00;48.50;;;;;;4931000;28;103042;-77
2022/01/12 07:09:31;;;;;;;14.30;8.73;;;17.00;48.50;;;;;;4931118;28;92549;-77
2022/01/12 07:11:57;;;;;;;14.75;9.10;;;17.00;48.50;;;;;;4932523;28;92796;-77
2022/01/12 07:14:22;;;;;;;14.90;9.55;;;17.00;48.50;;;;;;4932236;28;93132;-77
2022/01/12 07:16:48;;;;;;;12.45;8.75;;;16.90;48.40;;;;;;4932852;28;92896;-78
2022/01/12 07:19:14;;;;;;;14.18;8.90;;;17.00;48.40;;;;;;4932827;28;92916;-78
2022/01/12 07:21:40;;;;;;;13.68;9.05;;;16.90;48.50;;;;;;4932953;28;92127;-78
2022/01/12 07:24:06;;;;;;;13.98;8.63;;;17.00;48.50;;;;;;4931128;28;94999;-78
2022/01/12 07:26:33;;;;;;;13.07;9.40;;;16.90;48.40;;;;;;4931826;28;93356;-78
2022/01/12 07:28:58;;;;;;;13.75;8.90;;;17.00;48.40;;;;;;4930031;28;94974;-78
2022/01/12 07:31:24;;;;;;;13.23;8.80;;;16.90;48.40;;;;;;4933107;28;92581;-77
2022/01/12 07:33:50;;;;;;;13.35;9.20;;;16.90;48.40;;;;;;4932048;28;94325;-81
2022/01/12 07:36:17;;;;;;;14.13;9.13;;;16.90;48.40;;;;;;4932368;28;93882;-79
2022/01/12 07:38:43;;;;;;;14.30;8.95;;;17.00;48.40;;;;;;4932199;28;92863;-81
2022/01/12 07:41:09;;;;;;;13.52;8.50;;;17.00;48.50;;;;;;4932576;28;92945;-81
2022/01/12 07:43:34;;;;;;;14.45;9.10;;;17.00;48.40;;;;;;4930995;28;92769;-76
2022/01/12 07:46:00;;;;;;;15.23;8.95;;;16.90;48.50;;;;;;4930369;28;106717;-76
2022/01/12 07:48:26;;;;;;;13.65;8.82;;;16.90;48.50;;;;;;4931850;28;92993;-76
2022/01/12 07:50:52;;;;;;;14.00;8.95;;;17.00;48.70;;;;;;4931181;28;92919;-76
2022/01/12 07:53:18;;;;;;;12.13;8.50;;;17.00;48.80;;;;;;4930533;28;95605;-77
2022/01/12 07:55:44;;;;;;;13.43;8.20;;;17.00;48.90;;;;;;4930742;28;95718;-77
2022/01/12 07:58:10;;;;;;;14.75;8.55;;;17.00;49.00;;;;;;4935217;28;92539;-81
2022/01/12 08:00:36;;;;;;;15.63;8.95;;;17.00;49.10;;;;;;4935153;28;92433;-79
2022/01/12 08:03:01;;;;;;;13.50;8.75;;;17.00;49.20;;;;;;4941599;28;93184;-78
2022/01/12 08:05:27;;;;;;;14.35;8.32;;;17.00;49.30;;;;;;4941472;28;94873;-79
2022/01/12 08:07:54;;;;;;;12.98;7.93;;;17.00;49.30;;;;;;4932858;28;92921;-80
2022/01/12 08:10:21;;;;;;;15.05;8.88;;;16.90;49.40;;;;;;4944842;28;92370;-79
2022/01/12 08:12:48;;;;;;;14.38;8.77;;;16.90;49.40;;;;;;4950256;28;93193;-79
2022/01/12 08:15:15;;;;;;;12.80;7.80;;;16.90;49.40;;;;;;4950151;28;94039;-79
2022/01/12 08:17:41;;;;;;;12.55;7.97;;;16.90;49.40;;;;;;4951041;28;94948;-78
2022/01/12 08:20:11;;;;;;;14.57;8.40;;;16.90;49.40;;;;;;4933265;28;93078;-79
2022/01/12 08:22:38;;;;;;;14.73;8.05;;;16.90;49.40;;;;;;4932185;28;94236;-79
2022/01/12 08:25:05;;;;;;;15.02;7.78;;;16.90;49.40;;;;;;4929242;28;93498;-80
2022/01/12 08:27:31;;;;;;;15.20;7.78;;;16.90;49.40;;;;;;4943212;28;92602;-81
2022/01/12 08:30:01;;;;;;;13.55;8.15;;;16.90;49.40;;;;;;4951297;28;92864;-81
2022/01/12 08:32:30;;;;;;;13.13;8.05;;;16.90;49.40;;;;;;4950365;28;93681;-81
2022/01/12 08:34:57;;;;;;;13.65;7.85;;;17.00;49.40;;;;;;4949826;28;93202;-81
2022/01/12 08:37:23;;;;;;;15.02;8.13;;;16.90;49.40;;;;;;4950733;28;92982;-81
2022/01/12 08:39:51;;;;;;;16.20;8.23;;;16.90;49.40;;;;;;4936242;28;92626;-77
2022/01/12 08:42:16;;;;;;;14.98;7.93;;;16.90;49.40;;;;;;4931889;28;95443;-77
2022/01/12 08:44:42;;;;;;;14.75;8.32;;;16.90;49.40;;;;;;4931599;28;107989;-77
2022/01/12 08:47:08;;;;;;;15.00;8.27;;;16.90;49.40;;;;;;4934038;28;92530;-78
2022/01/12 08:49:33;;;;;;;15.73;9.10;;;16.90;49.30;;;;;;4933932;28;92777;-77
2022/01/12 08:51:59;;;;;;;15.13;9.52;;;16.90;49.30;;;;;;4934111;28;94413;-77
2022/01/12 08:54:24;;;;;;;15.88;9.27;;;16.90;49.20;;;;;;4941011;28;93393;-77
2022/01/12 08:56:50;;;;;;;13.18;8.60;;;16.90;49.20;;;;;;4952079;28;92828;-77
2022/01/12 08:59:17;;;;;;;15.82;9.10;;;16.90;49.10;;;;;;4953413;28;92188;-78
2022/01/12 09:01:43;;;;;;;15.02;9.20;;;16.90;49.00;;;;;;4952968;28;93711;-78
2022/01/12 09:04:09;;;;;;;17.55;9.57;;;16.80;48.90;;;;;;4952243;28;92875;-78
2022/01/12 09:06:36;;;;;;;17.00;9.35;;;16.90;48.80;;;;;;4951684;28;95480;-77
2022/01/12 09:09:03;;;;;;;16.65;9.25;;;16.80;48.80;;;;;;4951374;28;93080;-77
2022/01/12 09:11:29;;;;;;;13.13;8.57;;;16.80;48.70;;;;;;4952752;28;94125;-76
2022/01/12 09:13:55;;;;;;;14.52;8.63;;;16.80;48.60;;;;;;4938774;28;92988;-76
2022/01/12 09:16:21;;;;;;;13.00;8.30;;;16.80;48.50;;;;;;4933543;28;92855;-76
2022/01/12 09:18:47;;;;;;;13.65;8.52;;;16.80;48.50;;;;;;4933770;28;92874;-77
2022/01/12 09:21:12;;;;;;;13.00;8.35;;;16.90;48.60;;;;;;4933355;28;93121;-77
2022/01/12 09:23:38;;;;;;;12.00;8.20;;;16.80;48.40;;;;;;4934673;28;92682;-77
2022/01/12 09:26:04;;;;;;;12.93;7.95;;;16.90;48.30;;;;;;4933755;28;92472;-77
2022/01/12 09:28:31;;;;;;;12.77;7.63;;;16.80;48.20;;;;;;4933419;28;92897;-77
2022/01/12 09:30:57;;;;;;;11.10;7.15;;;16.80;48.20;;;;;;4931252;28;95546;-77
2022/01/12 09:33:23;;;;;;;13.07;7.60;;;16.90;48.20;;;;;;4931475;28;95471;-77
2022/01/12 09:35:50;;;;;;;9.50;6.80;;;16.80;48.10;;;;;;4933672;28;93061;-78
2022/01/12 09:38:19;;;;;;;10.85;6.50;;;16.80;48.10;;;;;;4931228;28;92821;-77
2022/01/12 09:40:45;;;;;;;8.70;6.18;;;16.80;48.00;;;;;;4932343;28;93053;-76
2022/01/12 09:43:12;;;;;;;9.32;6.20;;;16.80;48.00;;;;;;4932742;28;93380;-77
2022/01/12 09:45:45;;;;;;;8.38;6.07;;;16.80;47.90;;;;;;4933066;28;92537;-76
2022/01/12 09:48:11;;;;;;;9.73;6.43;;;16.90;47.90;;;;;;4934555;28;92087;-77
2022/01/12 09:50:38;;;;;;;9.32;6.40;;;16.90;48.00;;;;;;4931856;28;95979;-77
2022/01/12 09:53:03;;;;;;;8.75;5.88;;;16.80;47.90;;;;;;4931946;28;94249;-77
2022/01/12 09:55:29;;;;;;;7.70;5.70;;;16.80;48.00;;;;;;4931568;28;94869;-77
2022/01/12 09:57:55;;;;;;;7.50;5.28;;;16.80;47.90;;;;;;4932545;28;92868;-77
2022/01/12 10:00:25;;;;;;;9.63;5.65;;;16.80;47.90;;;;;;4933557;28;92853;-77
2022/01/12 10:03:14;;;;;;;7.25;4.95;;;16.80;47.80;;;;;;4934863;28;93331;-77
2022/01/12 10:05:40;;;;;;;7.10;5.07;;;16.80;47.70;;;;;;4939098;28;92600;-77
2022/01/12 10:08:14;;;;;;;7.25;5.03;;;16.80;47.80;;;;;;4934244;28;92992;-77
2022/01/12 10:10:41;;;;;;;7.88;4.90;;;16.80;47.80;;;;;;4914242;28;93476;-77
2022/01/12 10:13:23;;;;;;;6.75;4.70;;;16.80;47.80;;;;;;4913617;28;93625;-77
2022/01/12 10:15:50;;;;;;;5.82;4.50;;;16.80;47.80;;;;;;4913402;28;93379;-77
2022/01/12 10:18:18;;;;;;;5.72;4.05;;;16.80;47.80;;;;;;4919593;28;93076;-76
2022/01/12 10:20:47;;;;;;;6.22;4.50;;;16.80;47.80;;;;;;4931532;28;97164;-79
2022/01/12 10:23:15;;;;;;;6.40;4.15;;;16.80;47.70;;;;;;4932752;28;95585;-79
2022/01/12 10:25:46;;;;;;;5.15;3.97;;;16.80;47.70;;;;;;4933319;28;92541;-77
2022/01/12 10:28:16;;;;;;;4.43;3.65;;;16.80;47.60;;;;;;4932755;28;92905;-78
2022/01/12 10:31:00;;;;;;;4.70;3.97;;;16.80;47.60;;;;;;4931991;28;93140;-77
2022/01/12 10:33:29;;;;;;;5.85;3.75;;;16.80;47.60;;;;;;4933186;28;93270;-78
2022/01/12 10:35:57;;;;;;;4.90;3.42;;;16.80;47.60;;;;;;4932097;28;92797;-78
2022/01/12 10:38:22;;;;;;;4.60;3.70;;;16.80;47.60;;;;;;4933433;28;91783;-78
2022/01/12 10:41:02;;;;;;;4.47;3.33;;;16.90;47.70;;;;;;4932661;28;93985;-76
2022/01/12 10:43:36;;;;;;;4.45;3.42;;;16.90;47.50;;;;;;4931515;28;93275;-77
2022/01/12 10:46:10;;;;;;;3.50;3.10;;;16.90;47.50;;;;;;4935992;28;95059;-77
2022/01/12 10:48:50;;;;;;;4.88;3.35;;;16.90;47.50;;;;;;4951333;28;92458;-78
2022/01/12 10:51:20;;;;;;;5.07;3.10;;;16.90;47.40;;;;;;4951634;28;93101;-76
2022/01/12 10:53:47;;;;;;;4.13;2.97;;;16.90;47.40;;;;;;4952152;28;93245;-77
2022/01/12 10:56:15;;;;;;;3.90;2.70;;;17.00;47.30;;;;;;4953101;28;92671;-77
2022/01/12 10:58:46;;;;;;;4.53;2.88;;;17.00;47.30;;;;;;4952428;28;92511;-77
2022/01/12 11:01:16;;;;;;;4.30;2.97;;;17.00;47.20;;;;;;4952317;28;94148;-77
2022/01/12 11:03:42;;;;;;;3.67;2.65;;;17.00;47.20;;;;;;4951079;28;93926;-77
2022/01/12 11:06:10;;;;;;;4.05;2.60;;;17.00;47.20;;;;;;4951895;28;93024;-76
2022/01/12 11:08:37;;;;;;;3.97;2.40;;;17.00;47.10;;;;;;4952229;28;92856;-78
2022/01/12 11:11:03;;;;;;;3.35;2.47;;;17.00;47.10;;;;;;4951068;28;95654;-76
2022/01/12 11:13:30;;;;;;;4.07;2.38;;;17.00;47.10;;;;;;4951128;28;95172;-77
2022/01/12 11:15:56;;;;;;;3.50;2.60;;;17.00;47.10;;;;;;4951799;28;92974;-78
2022/01/12 11:18:28;;;;;;;3.22;2.30;;;17.00;47.10;;;;;;4952409;28;92547;-76
2022/01/12 11:21:21;;;;;;;3.42;2.28;;;17.00;47.10;;;;;;4951224;28;94056;-77
2022/01/12 11:23:50;;;;;;;5.10;2.13;;;17.00;47.10;;;;;;4942071;28;93736;-77
2022/01/12 11:26:18;;;;;;;3.03;2.20;;;17.00;47.20;;;;;;4931914;28;93083;-78
2022/01/12 11:28:46;;;;;;;4.68;1.98;;;17.00;47.20;;;;;;4927166;28;91888;-78
2022/01/12 11:31:18;;;;;;;4.47;2.63;;;17.00;47.20;;;;;;4912605;28;94466;-76
2022/01/12 11:33:45;;;;;;;4.03;2.35;;;17.00;47.30;;;;;;4919796;28;95343;-76
2022/01/12 11:36:25;;;;;;;3.78;1.95;;;17.00;47.40;;;;;;4930489;28;94912;-76
2022/01/12 11:39:10;;;;;;;2.88;2.03;;;17.00;47.50;;;;;;4931104;28;92480;-76
2022/01/12 11:41:38;;;;;;;3.03;1.98;;;17.00;47.50;;;;;;4931594;28;93542;-76
2022/01/12 11:44:08;;;;;;;3.83;2.00;;;17.00;47.50;;;;;;4929299;28;95506;-76
2022/01/12 11:46:44;;;;;;;3.75;2.22;;;17.00;47.50;;;;;;4932057;28;93344;-76
2022/01/12 11:49:11;;;;;;;3.47;2.00;;;17.00;47.50;;;;;;4931579;28;92911;-76
2022/01/12 11:51:44;;;;;;;2.92;1.77;;;17.00;47.50;;;;;;4934698;28;93111;-76
2022/01/12 11:54:16;;;;;;;3.85;2.00;;;17.00;47.40;;;;;;4934154;28;92552;-76
2022/01/12 11:57:02;;;;;;;4.43;2.17;;;17.00;47.40;;;;;;4931256;28;93185;-77
2022/01/12 11:59:30;;;;;;;4.35;1.90;;;17.00;47.40;;;;;;4931328;28;92891;-77
2022/01/12 12:02:09;;;;;;;3.83;2.10;;;17.00;47.50;;;;;;4930489;28;95615;-77
2022/01/12 12:04:35;;;;;;;4.43;2.10;;;17.00;47.40;;;;;;4926769;28;95712;-77
2022/01/12 12:07:14;;;;;;;3.70;2.05;;;17.00;47.60;;;;;;4911433;28;92611;-77
2022/01/12 12:09:53;;;;;;;3.90;2.30;;;17.00;47.70;;;;;;4912110;28;92534;-77
2022/01/12 12:12:34;;;;;;;3.88;2.25;;;17.00;47.80;;;;;;4912073;28;93167;-77
2022/01/12 12:15:02;;;;;;;3.25;2.10;;;17.00;47.70;;;;;;4949075;28;94595;-77
2022/01/12 12:17:30;;;;;;;4.75;1.95;;;17.00;47.80;;;;;;4954535;28;93007;-76
2022/01/12 12:19:57;;;;;;;4.22;2.05;;;17.00;47.90;;;;;;4955021;28;91884;-76
2022/01/12 12:22:26;;;;;;;4.20;2.08;;;16.90;47.80;;;;;;4955603;28;93634;-76
2022/01/12 12:25:03;;;;;;;4.50;2.10;;;16.90;47.90;;;;;;4954725;28;93610;-77
2022/01/12 12:27:30;;;;;;;3.40;2.05;;;16.90;47.90;;;;;;4954457;28;94847;-77
2022/01/12 12:29:56;;;;;;;4.43;2.40;;;16.90;47.90;;;;;;4954607;28;92757;-77
2022/01/12 12:32:46;;;;;;;4.72;2.50;;;16.90;47.90;;;;;;4954194;28;92599;-77
2022/01/12 12:35:19;;;;;;;5.20;2.20;;;16.90;47.90;;;;;;4954688;28;92745;-77
2022/01/12 12:37:47;;;;;;;3.85;2.47;;;16.90;47.90;;;;;;4954589;28;92741;-77
2022/01/12 12:40:24;;;;;;;6.35;2.50;;;16.90;47.90;;;;;;4939316;28;93002;-76
2022/01/12 12:43:18;;;;;;;4.88;2.67;;;16.90;48.10;;;;;;4933889;28;94354;-77
2022/01/12 12:45:46;;;;;;;7.43;3.33;;;16.90;48.00;;;;;;4934046;28;93301;-76
2022/01/12 12:48:17;;;;;;;5.30;2.83;;;16.80;48.10;;;;;;4935064;28;92752;-76
2022/01/12 12:50:44;;;;;;;6.03;2.72;;;16.90;48.10;;;;;;4933260;28;93097;-77
2022/01/12 12:53:10;;;;;;;8.27;3.03;;;16.90;48.20;;;;;;4933415;28;95430;-76
2022/01/12 12:55:38;;;;;;;7.07;2.80;;;16.90;48.10;;;;;;4934033;28;95832;-77
2022/01/12 12:58:06;;;;;;;6.55;3.17;;;16.90;48.10;;;;;;4934051;28;93213;-76
2022/01/12 13:00:33;;;;;;;5.72;3.00;;;16.90;48.10;;;;;;4933673;28;92985;-76
2022/01/12 13:03:01;;;;;;;6.90;3.22;;;16.90;48.10;;;;;;4934500;28;93152;-77
2022/01/12 13:05:30;;;;;;;8.55;3.20;;;16.90;48.20;;;;;;4934187;28;92828;-77
2022/01/12 13:07:57;;;;;;;8.52;3.22;;;16.90;48.20;;;;;;4933915;28;92917;-77
2022/01/12 13:10:27;;;;;;;7.25;3.05;;;16.80;48.20;;;;;;4933959;28;92210;-77
2022/01/12 13:12:59;;;;;;;8.90;3.28;;;16.90;48.30;;;;;;4933648;28;93309;-77
2022/01/12 13:15:38;;;;;;;9.55;3.65;;;16.80;48.20;;;;;;4933140;28;92570;-77
2022/01/12 13:18:18;;;;;;;7.45;3.10;;;16.90;48.30;;;;;;4916541;28;94911;-77
2022/01/12 13:23:51;;;;;;;8.10;3.00;;;16.80;48.30;;;;;;4919970;28;95860;-77
2022/01/12 13:26:23;;;;;;;8.90;3.50;;;16.80;48.40;;;;;;4933313;28;94328;-77
2022/01/12 13:28:50;;;;;;;8.88;3.63;;;16.80;48.40;;;;;;4933836;28;92645;-77
2022/01/12 13:31:19;;;;;;;9.75;3.63;;;16.80;48.40;;;;;;4933741;28;92429;-77
2022/01/12 13:33:50;;;;;;;8.27;3.35;;;16.80;48.40;;;;;;4934424;28;93015;-77
2022/01/12 13:36:18;;;;;;;7.22;3.53;;;16.80;48.40;;;;;;4936686;28;92736;-77
2022/01/12 13:39:05;;;;;;;9.07;3.38;;;16.80;48.40;;;;;;4937522;28;93016;-75
2022/01/12 13:41:35;;;;;;;10.00;3.47;;;16.80;48.40;;;;;;4934779;28;92607;-77
2022/01/12 13:44:07;;;;;;;9.88;3.22;;;16.80;48.50;;;;;;4932026;28;95974;-76
2022/01/12 13:47:06;;;;;;;10.95;3.22;;;16.80;48.50;;;;;;4931967;28;99804;-77
2022/01/12 13:49:32;;;;;;;7.93;3.35;;;16.80;48.50;;;;;;4929764;28;92827;-76
2022/01/12 13:52:07;;;;;;;8.02;3.70;;;16.80;48.70;;;;;;4932734;28;92598;-77
2022/01/12 13:54:38;;;;;;;8.32;3.40;;;16.90;48.70;;;;;;4934620;28;94848;-77
2022/01/12 13:57:06;;;;;;;9.45;3.50;;;16.80;48.70;;;;;;4933194;28;92801;-77
2022/01/12 13:59:43;;;;;;;10.10;3.75;;;16.80;48.70;;;;;;4933065;28;92833;-78
2022/01/12 14:02:14;;;;;;;11.30;3.80;;;16.80;48.80;;;;;;4933680;28;92077;-77
2022/01/12 14:04:47;;;;;;;7.97;3.22;;;16.80;49.90;;;;;;4932865;28;93357;-77
2022/01/12 14:07:24;;;;;;;12.68;3.83;;;16.80;48.90;;;;;;4933114;28;93268;-77
2022/01/12 14:09:57;;;;;;;11.68;3.20;;;16.80;48.90;;;;;;4931555;28;95217;-77
2022/01/12 14:12:27;;;;;;;8.50;3.40;;;16.70;48.80;;;;;;4933721;28;93038;-77
2022/01/12 14:14:57;;;;;;;11.45;4.10;;;16.80;49.00;;;;;;4933155;28;94640;-77
2022/01/12 14:17:29;;;;;;;9.73;3.92;;;16.70;49.00;;;;;;4932712;28;93281;-76
2022/01/12 14:20:06;;;;;;;10.80;3.65;;;16.70;49.00;;;;;;4932592;28;92912;-77
2022/01/12 14:22:44;;;;;;;10.63;3.85;;;16.70;49.00;;;;;;4932273;28;92546;-76
2022/01/12 14:25:10;;;;;;;12.05;4.38;;;16.80;49.10;;;;;;4932066;28;94084;-76
2022/01/12 14:27:51;;;;;;;9.80;4.10;;;16.70;49.00;;;;;;4932667;28;92817;-77
2022/01/12 14:30:18;;;;;;;11.93;4.35;;;16.80;49.00;;;;;;4928762;28;92816;-76
2022/01/12 14:32:45;;;;;;;11.60;4.80;;;16.80;49.00;;;;;;4913431;28;93286;-77
2022/01/12 14:35:13;;;;;;;9.98;3.88;;;16.80;49.50;;;;;;4915102;28;95269;-77
2022/01/12 14:37:39;;;;;;;10.90;3.58;;;16.80;48.90;;;;;;4931996;28;95150;-77
2022/01/12 14:40:07;;;;;;;10.60;3.70;;;16.80;48.90;;;;;;4931909;28;92797;-77
2022/01/12 14:43:00;;;;;;;10.02;4.50;;;16.80;48.80;;;;;;4915148;28;92495;-77
2022/01/12 14:45:28;;;;;;;9.18;4.30;;;16.90;48.80;;;;;;4927241;28;95438;-77
2022/01/12 14:47:58;;;;;;;8.35;4.32;;;16.90;48.80;;;;;;4932394;28;94501;-73
2022/01/12 14:50:26;;;;;;;9.70;4.10;;;16.90;48.60;;;;;;4933085;28;92391;-75
2022/01/12 14:52:53;;;;;;;11.60;4.50;;;16.90;48.60;;;;;;4932148;28;92144;-76
2022/01/12 14:55:19;;;;;;;12.23;5.40;;;17.00;48.60;;;;;;4923673;28;93910;-75
2022/01/12 14:57:45;;;;;;;13.30;5.18;;;17.00;48.50;;;;;;4912403;28;92955;-76
2022/01/12 15:00:18;;;;;;;13.85;5.03;;;17.00;48.50;;;;;;4911419;28;95144;-76
2022/01/12 15:02:44;;;;;;;10.73;4.82;;;17.00;48.50;;;;;;4913062;28;92950;-76
2022/01/12 15:05:10;;;;;;;11.10;4.60;;;17.00;48.40;;;;;;4912758;28;95293;-76
2022/01/12 15:07:36;;;;;;;11.27;5.30;;;17.00;48.50;;;;;;4943038;28;92996;-76
2022/01/12 15:10:02;;;;;;;12.55;5.07;;;17.10;48.40;;;;;;4931658;28;92955;-76
2022/01/12 15:12:36;;;;;;;9.38;4.60;;;17.10;48.40;;;;;;4951216;28;92842;-76
2022/01/12 15:15:02;;;;;;;11.60;4.97;;;17.10;48.40;;;;;;4951740;28;93513;-76
2022/01/12 15:17:30;;;;;;;10.50;4.85;;;17.10;48.30;;;;;;4951505;28;94521;-75
2022/01/12 15:19:56;;;;;;;12.43;5.65;;;17.10;48.30;;;;;;4954503;28;92498;-76
2022/01/12 15:22:23;;;;;;;9.63;4.82;;;17.10;48.30;;;;;;4956578;28;92494;-75
2022/01/12 15:24:52;;;;;;;10.85;4.97;;;17.10;48.30;;;;;;4954851;28;96181;-76
2022/01/12 15:27:18;;;;;;;10.20;5.10;;;17.10;48.30;;;;;;4956414;28;95407;-75
2022/01/12 15:29:44;;;;;;;11.88;5.47;;;17.20;48.30;;;;;;4952219;28;92470;-75
2022/01/12 15:32:11;;;;;;;10.95;5.30;;;17.10;48.20;;;;;;4952144;28;93025;-76
2022/01/12 15:34:37;;;;;;;10.30;5.70;;;17.20;48.30;;;;;;4950884;28;93510;-76